Nearby METAR Reports

 

KKLS - Kelso Longveiw, Washington, USA
Distance from station: ESE 7mi, 11km
Updated: Tue, 15-Jan-2019 10:56pm PST
Clear
Clear
 Wind from calm
Wind: Calm
Temperature: 28°F , -2°C
Dew Point: 28°F , -2°C
Humidity: 100%
Barometer: 1008.8 hPa
Clouds: Clear
Visibility: 10 miles , 16 km
2019/01/16 06:56 KKLS 160656Z AUTO 00000KT 10SM CLR M02/M02 A2979 RMK AO2 SLP094 T10171022 FZRANO
KSPB - Scappoose, Oregon, USA
Distance from station: SSE 29mi, 46km
Updated: Tue, 15-Jan-2019 10:53pm PST
Clear
Clear
 Wind from W
Wind: W 5 mph , 7 km/h
Temperature: 32°F , 0°C
Wind Chill: 27°F , -3°C
Dew Point: 28°F , -2°C
Humidity: 87%
Barometer: 1008.8 hPa
Clouds: Clear
Visibility: 10 miles , 16 km
2019/01/16 06:53 KSPB 160653Z AUTO 26004KT 10SM CLR 00/M02 A2979 RMK AO2 SLP088 T00001022
 
KCLS - Chehalis Central, Washington, USA
Distance from station: N 36mi, 58km
Updated: Tue, 15-Jan-2019 11:15pm PST
Clear
Clear
 Wind from NE
Wind: NE 5 mph , 7 km/h
Temperature: 32°F , 0°C
Wind Chill: 27°F , -3°C
Dew Point: 32°F , 0°C
Humidity: 100%
Barometer: 1008.1 hPa
Clouds: Clear
Visibility: 10 miles , 16 km
2019/01/16 07:15 KCLS 160715Z AUTO 04004KT 10SM CLR M00/00 A2977 RMK AO2
KAST - Astoria, Oregon, USA
Distance from station: W 41mi, 66km
Updated: Tue, 15-Jan-2019 10:55pm PST
Overcast
Overcast
 Wind from E
Wind: E 9 mph , 15 km/h
Temperature: 41°F , 5°C
Wind Chill: 35°F , 2°C
Dew Point: 34°F , 1°C
Humidity: 76%
Barometer: 1006.1 hPa
Clouds: Overcast
Visibility: 10 miles , 16 km
Cloud details: Overcast 8000 ft
2019/01/16 06:55 KAST 160655Z AUTO 08008KT 10SM OVC080 05/01 A2971 RMK AO2 SLP061 T00500006
 
KVUO - Vancouver, Washington, USA
Distance from station: SSE 42mi, 68km
Updated: Tue, 15-Jan-2019 10:53pm PST
Clear
Clear
 Wind from calm
Wind: Calm
Temperature: 30°F , -1°C
Dew Point: 27°F , -3°C
Humidity: 86%
Barometer: 1009.1 hPa
Clouds: Clear
Visibility: 10 miles , 16 km
2019/01/16 06:53 KVUO 160653Z AUTO 00000KT 10SM CLR M01/M03 A2980 RMK AO2 SLP090 T10061028
KHIO - Hillsboro/Portld, Oregon, USA
Distance from station: S 43mi, 69km
Updated: Tue, 15-Jan-2019 10:53pm PST
Partly cloudy
Partly cloudy
 Wind from W
Wind: W 5 mph , 7 km/h
Temperature: 32°F , 0°C
Wind Chill: 27°F , -3°C
Dew Point: 28°F , -2°C
Humidity: 87%
Barometer: 1008.8 hPa
Clouds: Partly cloudy
Visibility: 10 miles , 16 km
Cloud details: Few Clouds 8500 ft
Partly cloudy 11000 ft
2019/01/16 06:53 KHIO 160653Z AUTO 27004KT 10SM FEW085 SCT110 00/M02 A2979 RMK AO2 SLP089 T00001022
 
KPDX - Portland, Oregon, USA
Distance from station: SSE 44mi, 70km
Updated: Tue, 15-Jan-2019 10:53pm PST
Clear
Clear
 Wind from ESE
Wind: ESE 18 mph , 30 km/h
Temperature: 39°F , 4°C
Wind Chill: 30°F , -1°C
Dew Point: 27°F , -3°C
Humidity: 61%
Barometer: 1008.8 hPa
Clouds: Clear
Visibility: 10 miles , 16 km
2019/01/16 06:53 KPDX 160653Z 11016KT 10SM CLR 04/M03 A2979 RMK AO2 SLP088 T00391028